createdAt,value
2023-04-15T00:01:53.937Z,63.59
2023-04-15T00:04:20.580Z,62.61
2023-04-15T00:06:47.248Z,62.84
2023-04-15T00:09:13.848Z,64.10
2023-04-15T00:11:40.229Z,64.63
2023-04-15T00:14:06.683Z,65.32
2023-04-15T00:16:33.281Z,65.68
2023-04-15T00:19:00.016Z,65.77
2023-04-15T00:21:26.552Z,66.00
2023-04-15T00:23:53.881Z,66.38
2023-04-15T00:26:22.846Z,66.27
2023-04-15T00:28:49.202Z,67.16
2023-04-15T00:31:15.788Z,66.84
2023-04-15T00:33:42.422Z,66.51
2023-04-15T00:36:08.881Z,67.22
2023-04-15T00:38:35.517Z,67.01
2023-04-15T00:41:02.068Z,66.68
2023-04-15T00:43:28.575Z,66.32
2023-04-15T00:45:55.003Z,67.17
2023-04-15T00:48:21.564Z,66.56
2023-04-15T00:50:48.122Z,67.42
2023-04-15T00:53:14.593Z,66.98
2023-04-15T00:55:45.246Z,67.07
2023-04-15T00:58:11.867Z,66.71
2023-04-15T01:00:38.254Z,67.83
2023-04-15T01:03:04.813Z,67.59
2023-04-15T01:05:31.450Z,67.82
2023-04-15T01:07:58.024Z,67.33
2023-04-15T01:10:24.595Z,67.09
2023-04-15T01:12:50.938Z,68.09
2023-04-15T01:15:17.602Z,67.00
2023-04-15T01:17:44.322Z,64.42
2023-04-15T01:20:10.752Z,64.24
2023-04-15T01:22:37.230Z,63.89
2023-04-15T01:25:03.623Z,63.55
2023-04-15T01:27:30.026Z,64.00
2023-04-15T01:29:56.397Z,64.39
2023-04-15T01:32:25.394Z,64.13
2023-04-15T01:34:51.862Z,65.38
2023-04-15T01:37:18.554Z,65.88
2023-04-15T01:39:44.971Z,65.75
2023-04-15T01:42:11.301Z,65.81
2023-04-15T01:44:37.699Z,66.34
2023-04-15T01:47:04.248Z,66.16
2023-04-15T01:49:30.668Z,66.02
2023-04-15T01:51:57.129Z,66.32
2023-04-15T01:54:25.736Z,67.53
2023-04-15T01:56:52.124Z,67.88
2023-04-15T01:59:18.565Z,66.53
2023-04-15T02:01:45.031Z,67.03
2023-04-15T02:04:11.469Z,66.97
2023-04-15T02:06:37.866Z,66.25
2023-04-15T02:09:04.538Z,65.92
2023-04-15T02:11:30.896Z,66.06
2023-04-15T02:13:57.281Z,65.98
2023-04-15T02:16:23.650Z,67.08
2023-04-15T02:18:51.257Z,67.21
2023-04-15T02:21:17.684Z,67.68
2023-04-15T02:23:44.094Z,67.53
2023-04-15T02:26:10.657Z,67.59
2023-04-15T02:28:36.990Z,67.43
2023-04-15T02:31:03.333Z,67.11
2023-04-15T02:33:29.717Z,66.73
2023-04-15T02:35:56.066Z,67.50
2023-04-15T02:38:27.353Z,66.89
2023-04-15T02:40:54.054Z,67.69
2023-04-15T02:43:20.930Z,67.92
2023-04-15T02:45:47.553Z,67.93
2023-04-15T02:48:14.132Z,67.49
2023-04-15T02:50:40.748Z,68.09
2023-04-15T02:53:08.219Z,69.34
2023-04-15T02:55:34.604Z,68.89
2023-04-15T02:58:01.251Z,69.64
2023-04-15T03:00:27.814Z,70.03
2023-04-15T03:05:37.972Z,71.53
2023-04-15T03:08:04.437Z,71.32
2023-04-15T03:10:30.821Z,71.18
2023-04-15T03:12:57.196Z,70.86
2023-04-15T03:15:26.266Z,72.15
2023-04-15T03:17:53.281Z,72.33
2023-04-15T03:20:20.159Z,72.01
2023-04-15T03:22:46.689Z,72.56
2023-04-15T03:25:13.422Z,73.39
2023-04-15T03:27:42.032Z,73.45
2023-04-15T03:30:08.500Z,73.66
2023-04-15T03:32:34.980Z,72.83
2023-04-15T03:35:01.479Z,73.20
2023-04-15T03:37:27.870Z,72.77
2023-04-15T03:39:54.522Z,72.17
2023-04-15T03:42:20.974Z,72.25
2023-04-15T03:44:47.363Z,72.56
2023-04-15T03:47:21.445Z,72.47
2023-04-15T03:49:48.827Z,72.69
2023-04-15T03:52:17.614Z,72.17
2023-04-15T03:54:44.059Z,71.98
2023-04-15T03:57:10.643Z,72.12
2023-04-15T03:59:37.027Z,72.82
2023-04-15T04:02:03.572Z,72.85
2023-04-15T04:04:30.214Z,72.77
2023-04-15T04:06:56.798Z,72.32
2023-04-15T04:09:23.149Z,72.14
2023-04-15T04:11:49.779Z,72.54
2023-04-15T04:14:18.653Z,73.02
2023-04-15T04:16:45.159Z,73.41
2023-04-15T04:19:12.127Z,72.73
2023-04-15T04:21:38.550Z,72.19
2023-04-15T04:24:04.997Z,72.03
2023-04-15T04:26:31.373Z,71.69
2023-04-15T04:28:58.468Z,71.98
2023-04-15T04:31:24.975Z,72.23
2023-04-15T04:33:51.737Z,72.53
2023-04-15T04:36:18.123Z,72.29
2023-04-15T04:38:44.791Z,73.01
2023-04-15T04:41:13.490Z,73.48
2023-04-15T04:43:39.965Z,73.26
2023-04-15T04:46:06.668Z,72.94
2023-04-15T04:48:33.070Z,73.88
2023-04-15T04:50:59.488Z,74.38
2023-04-15T04:53:25.870Z,74.40
2023-04-15T04:55:52.203Z,74.75
2023-04-15T04:58:18.573Z,75.25
2023-04-15T05:00:45.046Z,74.88
2023-04-15T05:03:11.695Z,74.32
2023-04-15T05:05:38.615Z,74.44
2023-04-15T05:08:05.050Z,74.85
2023-04-15T05:10:31.609Z,74.73
2023-04-15T05:12:57.942Z,75.60
2023-04-15T05:15:24.298Z,75.95
2023-04-15T05:17:50.741Z,75.32
2023-04-15T05:20:17.495Z,74.96
2023-04-15T05:22:43.873Z,74.39
2023-04-15T05:25:11.254Z,74.79
2023-04-15T05:27:37.626Z,74.52
2023-04-15T05:30:03.993Z,74.00
2023-04-15T05:32:30.395Z,74.07
2023-04-15T05:34:56.840Z,74.01
2023-04-15T05:37:23.287Z,74.42
2023-04-15T05:39:49.731Z,74.41
2023-04-15T05:42:16.200Z,74.41
2023-04-15T05:44:43.957Z,74.74
2023-04-15T05:47:11.432Z,75.42
2023-04-15T05:49:37.867Z,74.83
2023-04-15T05:52:04.255Z,74.05
2023-04-15T05:54:30.652Z,74.46
2023-04-15T05:56:57.236Z,74.39
2023-04-15T05:59:25.946Z,74.34
2023-04-15T06:01:52.389Z,74.51
2023-04-15T06:04:18.952Z,74.60
2023-04-15T06:06:45.376Z,74.59
2023-04-15T06:09:12.200Z,74.06
2023-04-15T06:11:38.586Z,73.75
2023-04-15T06:14:04.987Z,75.03
2023-04-15T06:16:31.538Z,75.32
2023-04-15T06:18:57.961Z,75.23
2023-04-15T06:21:24.448Z,74.70
2023-04-15T06:23:50.790Z,73.94
2023-04-15T06:26:17.139Z,74.24
2023-04-15T06:28:43.506Z,73.25
2023-04-15T06:31:09.968Z,73.64
2023-04-15T06:33:36.392Z,72.72
2023-04-15T06:36:02.777Z,72.18
2023-04-15T06:38:29.339Z,71.72
2023-04-15T06:40:55.721Z,72.36
2023-04-15T06:43:22.474Z,72.20
2023-04-15T06:45:48.902Z,71.60
2023-04-15T06:48:16.224Z,71.49
2023-04-15T06:50:42.620Z,71.72
2023-04-15T06:53:14.331Z,72.06
2023-04-15T06:55:40.654Z,72.76
2023-04-15T06:58:06.977Z,72.36
2023-04-15T07:00:33.368Z,71.05
2023-04-15T07:02:59.834Z,69.72
2023-04-15T07:05:26.265Z,71.19
2023-04-15T07:07:52.630Z,71.57
2023-04-15T07:10:21.288Z,72.82
2023-04-15T07:12:47.793Z,72.17
2023-04-15T07:15:14.215Z,73.76
2023-04-15T07:17:41.762Z,74.53
2023-04-15T07:20:09.050Z,74.91
2023-04-15T07:22:35.755Z,74.24
2023-04-15T07:25:02.233Z,74.02
2023-04-15T07:27:28.996Z,76.07
2023-04-15T07:29:55.354Z,76.92
2023-04-15T07:32:21.781Z,77.15
2023-04-15T07:34:48.271Z,77.36
2023-04-15T07:37:14.835Z,77.20
2023-04-15T07:39:41.200Z,77.06
2023-04-15T07:42:08.563Z,76.62
2023-04-15T07:44:35.187Z,76.62
2023-04-15T07:47:02.106Z,76.44
2023-04-15T07:49:28.693Z,75.58
2023-04-15T07:51:55.023Z,74.83
2023-04-15T07:54:21.588Z,75.14
2023-04-15T07:56:48.994Z,72.78
2023-04-15T07:59:15.322Z,73.81
2023-04-15T08:01:44.372Z,72.52
2023-04-15T08:04:11.029Z,72.49
2023-04-15T08:06:37.621Z,71.52
2023-04-15T08:09:07.119Z,72.81
2023-04-15T08:11:33.718Z,72.53
2023-04-15T08:14:00.156Z,71.69
2023-04-15T08:16:26.786Z,71.70
2023-04-15T08:18:53.221Z,71.10
2023-04-15T08:21:19.737Z,71.75
2023-04-15T08:23:46.144Z,70.11
2023-04-15T08:26:12.666Z,69.56
2023-04-15T08:28:39.751Z,71.52
2023-04-15T08:31:06.283Z,71.66
2023-04-15T08:33:32.772Z,71.80
2023-04-15T08:35:59.282Z,71.68
2023-04-15T08:38:25.726Z,71.21
2023-04-15T08:40:52.338Z,71.53
2023-04-15T08:43:18.937Z,70.38
2023-04-15T08:45:45.955Z,70.79
2023-04-15T08:48:12.516Z,70.79
2023-04-15T08:50:38.953Z,71.52
2023-04-15T08:53:05.545Z,71.51
2023-04-15T08:55:32.041Z,70.61
2023-04-15T08:57:58.601Z,71.11
2023-04-15T09:00:25.400Z,71.32
2023-04-15T09:02:53.060Z,72.78
2023-04-15T09:05:19.570Z,72.04
2023-04-15T09:07:45.939Z,72.23
2023-04-15T09:10:12.333Z,71.72
2023-04-15T09:12:38.812Z,70.56
2023-04-15T09:15:05.306Z,71.17
2023-04-15T09:17:33.240Z,72.61
2023-04-15T09:19:59.908Z,72.18
2023-04-15T09:22:26.606Z,71.47
2023-04-15T09:24:53.010Z,72.91
2023-04-15T09:27:19.953Z,73.50
2023-04-15T09:29:46.374Z,72.24
2023-04-15T09:32:12.786Z,73.63
2023-04-15T09:34:39.152Z,74.12
2023-04-15T09:37:07.533Z,73.66
2023-04-15T09:39:34.013Z,73.53
2023-04-15T09:42:00.474Z,73.83
2023-04-15T09:44:27.120Z,72.85
2023-04-15T09:46:53.758Z,73.20
2023-04-15T09:49:20.391Z,73.48
2023-04-15T09:51:57.651Z,74.62
2023-04-15T09:54:30.765Z,73.54
2023-04-15T09:56:58.045Z,74.05
2023-04-15T09:59:24.791Z,73.54
2023-04-15T10:01:51.302Z,72.70
2023-04-15T10:04:18.572Z,73.05
2023-04-15T10:06:45.176Z,72.19
2023-04-15T10:09:11.751Z,73.85
2023-04-15T10:11:38.380Z,73.60
2023-04-15T10:14:04.991Z,73.34
2023-04-15T10:16:31.525Z,73.19
2023-04-15T10:18:57.994Z,73.18
2023-04-15T10:21:24.453Z,73.04
2023-04-15T10:23:50.947Z,72.27
2023-04-15T10:26:17.914Z,73.09
2023-04-15T10:28:44.408Z,73.05
2023-04-15T10:31:10.804Z,72.24
2023-04-15T10:33:37.428Z,69.92
2023-04-15T10:36:03.869Z,72.02
2023-04-15T10:38:30.268Z,72.98
2023-04-15T10:40:56.614Z,71.99
2023-04-15T10:43:23.987Z,72.14
2023-04-15T10:45:50.352Z,71.45
2023-04-15T10:48:16.730Z,73.83
2023-04-15T10:50:43.066Z,72.99
2023-04-15T10:53:09.435Z,72.34
2023-04-15T10:55:35.788Z,72.68
2023-04-15T10:58:02.159Z,70.71
2023-04-15T11:00:28.526Z,70.65
2023-04-15T11:02:55.026Z,71.51
2023-04-15T11:05:21.526Z,70.23
2023-04-15T11:07:47.998Z,71.91
2023-04-15T11:10:14.342Z,71.34
2023-04-15T11:12:40.681Z,71.41
2023-04-15T11:15:07.007Z,71.62
2023-04-15T11:17:33.996Z,71.83
2023-04-15T11:20:01.423Z,71.76
2023-04-15T11:22:27.844Z,70.66
2023-04-15T11:24:54.440Z,70.58
2023-04-15T11:27:20.854Z,70.14
2023-04-15T11:29:47.206Z,70.36
2023-04-15T11:32:15.672Z,69.42
2023-04-15T11:34:44.106Z,70.38
2023-04-15T11:37:10.634Z,69.93
2023-04-15T11:39:37.194Z,69.66
2023-04-15T11:42:03.581Z,70.07
2023-04-15T11:44:29.947Z,70.66
2023-04-15T11:46:56.289Z,70.69
2023-04-15T11:49:22.624Z,69.54
2023-04-15T11:51:48.981Z,70.76
2023-04-15T11:54:15.424Z,70.80
2023-04-15T11:56:41.776Z,71.81
2023-04-15T11:59:08.384Z,72.88
2023-04-15T12:01:34.760Z,71.29
2023-04-15T12:04:02.457Z,71.30
2023-04-15T12:06:29.044Z,72.12
2023-04-15T12:08:56.276Z,71.06
2023-04-15T12:11:22.698Z,71.68
2023-04-15T12:13:49.077Z,71.11
2023-04-15T12:16:15.571Z,72.66
2023-04-15T12:18:44.928Z,72.96
2023-04-15T12:21:13.343Z,73.57
2023-04-15T12:23:39.810Z,74.13
2023-04-15T12:26:06.148Z,74.26
2023-04-15T12:28:32.536Z,73.37
2023-04-15T12:30:58.980Z,73.50
2023-04-15T12:33:26.149Z,72.29
2023-04-15T12:35:52.551Z,72.39
2023-04-15T12:38:20.994Z,71.30
2023-04-15T12:40:48.399Z,73.10
2023-04-15T12:43:17.027Z,73.19
2023-04-15T12:45:43.428Z,72.79
2023-04-15T12:48:11.953Z,74.33
2023-04-15T12:50:38.305Z,73.91
2023-04-15T12:53:04.697Z,73.78
2023-04-15T12:55:31.045Z,73.44
2023-04-15T12:57:57.458Z,72.39
2023-04-15T13:00:27.216Z,72.64
2023-04-15T13:02:53.631Z,71.72
2023-04-15T13:05:20.385Z,70.85
2023-04-15T13:07:46.750Z,71.90
2023-04-15T13:10:13.176Z,72.93
2023-04-15T13:12:39.497Z,72.50
2023-04-15T13:15:05.948Z,71.19
2023-04-15T13:17:32.355Z,71.12
2023-04-15T13:19:58.811Z,71.54
2023-04-15T13:22:25.197Z,71.26
2023-04-15T13:24:51.658Z,71.17
2023-04-15T13:27:18.427Z,71.93
2023-04-15T13:29:45.882Z,71.09
2023-04-15T13:32:19.374Z,71.59
2023-04-15T13:34:46.194Z,72.08
2023-04-15T13:37:12.525Z,71.64
2023-04-15T13:39:38.893Z,71.95
2023-04-15T13:42:05.241Z,72.97
2023-04-15T13:44:31.630Z,73.34
2023-04-15T13:46:58.185Z,71.95
2023-04-15T13:49:24.625Z,72.47
2023-04-15T13:51:51.045Z,71.38
2023-04-15T13:54:17.511Z,72.33
2023-04-15T13:56:44.181Z,72.46
2023-04-15T13:59:12.712Z,72.61
2023-04-15T14:01:39.354Z,71.48
2023-04-15T14:04:06.347Z,71.16
2023-04-15T14:06:33.077Z,70.81
2023-04-15T14:08:59.457Z,70.98
2023-04-15T14:11:26.126Z,71.65
2023-04-15T14:13:52.499Z,72.11
2023-04-15T14:16:18.977Z,72.00
2023-04-15T14:18:45.352Z,72.56
2023-04-15T14:21:11.708Z,72.59
2023-04-15T14:23:38.174Z,73.03
2023-04-15T14:26:04.502Z,72.15
2023-04-15T14:28:30.858Z,71.89
2023-04-15T14:30:57.264Z,71.95
2023-04-15T14:33:23.660Z,73.38
2023-04-15T14:35:50.042Z,73.05
2023-04-15T14:38:16.477Z,73.26
2023-04-15T14:40:42.886Z,72.51
2023-04-15T14:43:09.321Z,72.29
2023-04-15T14:45:39.481Z,72.43
2023-04-15T14:48:10.806Z,73.60
2023-04-15T14:50:37.231Z,71.87
2023-04-15T14:53:03.745Z,73.60
2023-04-15T14:55:30.096Z,72.54
2023-04-15T14:57:58.927Z,71.56
2023-04-15T15:00:25.260Z,70.66
2023-04-15T15:02:53.994Z,73.47
2023-04-15T15:05:22.657Z,73.83
2023-04-15T15:07:49.129Z,73.79
2023-04-15T15:10:16.101Z,74.24
2023-04-15T15:12:42.508Z,74.37
2023-04-15T15:15:19.569Z,72.83
2023-04-15T15:17:57.124Z,73.60
2023-04-15T15:20:23.648Z,74.13
2023-04-15T15:22:51.146Z,73.96
2023-04-15T15:25:17.474Z,73.85
2023-04-15T15:27:44.104Z,73.67
2023-04-15T15:30:10.804Z,73.95
2023-04-15T15:32:37.200Z,73.07
2023-04-15T15:35:03.994Z,74.10
2023-04-15T15:37:30.327Z,73.86
2023-04-15T15:39:56.721Z,74.30
2023-04-15T15:42:25.264Z,72.83
2023-04-15T15:44:51.650Z,72.50
2023-04-15T15:47:18.549Z,71.81
2023-04-15T15:49:44.987Z,70.65
2023-04-15T15:52:14.301Z,69.21
2023-04-15T15:54:41.017Z,69.34
2023-04-15T15:57:07.700Z,71.54
2023-04-15T15:59:34.050Z,70.37
2023-04-15T16:02:00.631Z,71.56
2023-04-15T16:04:27.231Z,69.87
2023-04-15T16:06:55.241Z,72.37
2023-04-15T16:09:21.585Z,72.41
2023-04-15T16:11:47.968Z,70.31
2023-04-15T16:14:15.434Z,69.49
2023-04-15T16:16:41.807Z,71.52
2023-04-15T16:19:08.268Z,72.29
2023-04-15T16:21:34.762Z,73.39
2023-04-15T16:24:01.208Z,73.50
2023-04-15T16:26:28.254Z,71.51
2023-04-15T16:28:55.326Z,70.92
2023-04-15T16:31:22.115Z,70.67
2023-04-15T16:33:48.944Z,70.45
2023-04-15T16:36:15.313Z,70.19
2023-04-15T16:38:41.710Z,71.27
2023-04-15T16:41:09.204Z,71.80
2023-04-15T16:43:35.582Z,69.81
2023-04-15T16:46:04.279Z,69.78
2023-04-15T16:48:30.941Z,70.18
2023-04-15T16:50:57.273Z,70.19
2023-04-15T16:53:26.503Z,69.79
2023-04-15T16:55:53.881Z,70.05
2023-04-15T16:58:22.620Z,71.03
2023-04-15T17:00:49.948Z,70.51
2023-04-15T17:03:16.513Z,69.56
2023-04-15T17:05:43.309Z,70.71
2023-04-15T17:08:09.736Z,69.35
2023-04-15T17:10:36.087Z,70.47
2023-04-15T17:13:02.565Z,69.42
2023-04-15T17:15:29.209Z,69.56
2023-04-15T17:17:55.834Z,68.35
2023-04-15T17:20:22.729Z,67.82
2023-04-15T17:22:50.167Z,69.32
2023-04-15T17:25:16.581Z,69.79
2023-04-15T17:27:43.280Z,70.42
2023-04-15T17:30:11.038Z,67.86
2023-04-15T17:32:37.525Z,67.52
2023-04-15T17:35:04.252Z,68.00
2023-04-15T17:37:33.339Z,68.65
2023-04-15T17:40:00.727Z,68.88
2023-04-15T17:42:27.372Z,69.07
2023-04-15T17:44:53.763Z,71.14
2023-04-15T17:47:20.251Z,71.48
2023-04-15T17:49:46.641Z,72.93
2023-04-15T17:52:15.672Z,74.03
2023-04-15T17:54:44.530Z,73.36
2023-04-15T17:57:11.283Z,70.24
2023-04-15T17:59:37.708Z,70.94
2023-04-15T18:02:04.177Z,71.53
2023-04-15T18:04:31.002Z,73.20
2023-04-15T18:06:57.693Z,74.27
2023-04-15T18:09:24.193Z,75.03
2023-04-15T18:11:51.111Z,75.81
2023-04-15T18:14:27.032Z,76.16
2023-04-15T18:17:00.080Z,75.83
2023-04-15T18:19:26.437Z,75.68
2023-04-15T18:21:52.826Z,75.35
2023-04-15T18:24:19.245Z,75.44
2023-04-15T18:26:47.468Z,75.12
2023-04-15T18:29:15.445Z,74.94
2023-04-15T18:31:41.826Z,75.73
2023-04-15T18:34:08.189Z,75.51
2023-04-15T18:36:34.530Z,76.12
2023-04-15T18:39:01.001Z,76.12
2023-04-15T18:41:27.407Z,75.43
2023-04-15T18:43:53.765Z,76.29
2023-04-15T18:46:20.379Z,76.96
2023-04-15T18:48:48.877Z,76.69
2023-04-15T18:51:15.581Z,76.27
2023-04-15T18:53:42.066Z,76.65
2023-04-15T18:56:08.451Z,77.11
2023-04-15T18:59:08.336Z,76.56
2023-04-15T19:01:22.207Z,76.99
2023-04-15T19:03:48.665Z,76.94
2023-04-15T19:06:15.122Z,77.10
2023-04-15T19:08:41.512Z,77.23
2023-04-15T19:11:07.982Z,77.44
2023-04-15T19:13:34.318Z,77.30
2023-04-15T19:16:00.661Z,77.15
2023-04-15T19:18:27.020Z,76.89
2023-04-15T19:20:54.070Z,77.16
2023-04-15T19:23:20.520Z,77.35
2023-04-15T19:25:46.955Z,78.36
2023-04-15T19:28:13.360Z,78.35
2023-04-15T19:30:40.041Z,78.24
2023-04-15T19:33:07.438Z,78.24
2023-04-15T19:35:36.565Z,77.66
2023-04-15T19:38:02.928Z,77.90
2023-04-15T19:40:29.299Z,78.38
2023-04-15T19:42:55.706Z,78.23
2023-04-15T19:45:22.317Z,78.48
2023-04-15T19:47:48.738Z,78.50
2023-04-15T19:50:15.173Z,78.65
2023-04-15T19:52:41.516Z,78.32
2023-04-15T19:55:07.985Z,78.08
2023-04-15T19:57:34.377Z,78.31
2023-04-15T20:00:00.824Z,78.50
2023-04-15T20:02:27.426Z,77.60
2023-04-15T20:04:54.040Z,77.09
2023-04-15T20:07:23.222Z,77.57
2023-04-15T20:09:53.885Z,78.54
2023-04-15T20:12:50.349Z,78.24
2023-04-15T20:15:06.626Z,79.18
2023-04-15T20:17:33.135Z,79.10
2023-04-15T20:19:59.539Z,78.90
2023-04-15T20:22:26.229Z,79.07
2023-04-15T20:24:54.122Z,78.68
2023-04-15T20:27:20.553Z,78.47
2023-04-15T20:29:47.186Z,78.39
2023-04-15T20:32:13.903Z,78.08
2023-04-15T20:34:41.334Z,77.86
2023-04-15T20:37:08.700Z,77.62
2023-04-15T20:39:35.043Z,77.28
2023-04-15T20:42:01.665Z,77.39
2023-04-15T20:44:30.398Z,77.20
2023-04-15T20:46:56.817Z,77.72
2023-04-15T20:49:23.262Z,78.15
2023-04-15T20:51:49.641Z,78.64
2023-04-15T20:54:15.997Z,78.64
2023-04-15T20:56:47.764Z,78.46
2023-04-15T20:59:14.517Z,78.76
2023-04-15T21:01:42.030Z,78.62
2023-04-15T21:04:08.693Z,78.34
2023-04-15T21:06:35.196Z,78.51
2023-04-15T21:09:03.168Z,78.23
2023-04-15T21:11:53.343Z,78.13
2023-04-15T21:14:20.250Z,77.86
2023-04-15T21:16:46.838Z,77.74
2023-04-15T21:19:17.916Z,77.93
2023-04-15T21:21:45.975Z,77.89
2023-04-15T21:24:16.308Z,78.00
2023-04-15T21:26:43.988Z,78.64
2023-04-15T21:34:41.054Z,77.42
2023-04-15T21:37:09.180Z,77.48
2023-04-15T21:39:36.201Z,77.76
2023-04-15T21:42:02.927Z,77.78
2023-04-15T21:44:29.385Z,77.39
2023-04-15T21:46:56.307Z,77.71
2023-04-15T21:49:32.374Z,77.71
2023-04-15T21:52:01.762Z,78.27
2023-04-15T21:54:32.255Z,78.16
2023-04-15T21:56:58.763Z,78.02
2023-04-15T21:59:26.292Z,77.81
2023-04-15T22:01:54.271Z,78.46
2023-04-15T22:04:22.996Z,78.81
2023-04-15T22:06:52.307Z,78.80
2023-04-15T22:09:26.438Z,78.65
2023-04-15T22:11:53.048Z,78.72
2023-04-15T22:14:21.891Z,78.34
2023-04-15T22:16:50.601Z,78.56
2023-04-15T22:19:17.453Z,78.58
2023-04-15T22:21:44.159Z,78.64
2023-04-15T22:24:34.372Z,78.40
2023-04-15T22:27:05.160Z,78.65
2023-04-15T22:29:34.567Z,78.31
2023-04-15T22:32:03.163Z,78.20
2023-04-15T22:34:32.393Z,77.89
2023-04-15T22:37:08.689Z,77.90
2023-04-15T22:39:35.433Z,78.14
2023-04-15T22:42:04.631Z,78.03
2023-04-15T22:44:31.053Z,78.31
2023-04-15T22:46:58.020Z,79.51
2023-04-15T22:49:24.648Z,79.49
2023-04-15T22:51:54.287Z,79.16
2023-04-15T22:54:20.662Z,79.16
2023-04-15T22:56:47.072Z,79.15
2023-04-15T22:59:13.764Z,79.08
2023-04-15T23:01:40.205Z,79.08
2023-04-15T23:04:10.963Z,78.85
2023-04-15T23:06:53.261Z,78.70
2023-04-15T23:09:19.962Z,78.43
2023-04-15T23:11:46.607Z,78.34
2023-04-15T23:14:13.383Z,78.53
2023-04-15T23:16:39.856Z,78.59
2023-04-15T23:19:06.477Z,78.95
2023-04-15T23:21:33.272Z,79.14
2023-04-15T23:23:59.781Z,79.17
2023-04-15T23:26:26.513Z,79.07
2023-04-15T23:28:55.202Z,79.18
2023-04-15T23:31:22.048Z,78.95
2023-04-15T23:33:48.505Z,79.35
2023-04-15T23:36:14.889Z,79.33
2023-04-15T23:38:42.309Z,79.35
2023-04-15T23:41:08.686Z,79.65
2023-04-15T23:43:35.233Z,79.66
2023-04-15T23:46:02.210Z,79.75
2023-04-15T23:48:28.905Z,79.53
2023-04-15T23:50:55.346Z,79.44
2023-04-15T23:53:21.845Z,79.55
2023-04-15T23:55:48.735Z,79.39
2023-04-15T23:58:15.358Z,79.44
